createdAt,value
2023-05-19T00:00:17.505Z,3.50
2023-05-19T00:02:56.506Z,3.47
2023-05-19T00:05:29.043Z,4.93
2023-05-19T00:08:06.066Z,3.27
2023-05-19T00:10:39.501Z,4.20
2023-05-19T00:13:14.246Z,3.77
2023-05-19T00:15:45.055Z,3.60
2023-05-19T00:18:32.559Z,3.90
2023-05-19T00:21:27.524Z,3.93
2023-05-19T00:23:55.972Z,3.37
2023-05-19T00:26:33.268Z,3.60
2023-05-19T00:29:10.592Z,3.83
2023-05-19T00:31:44.742Z,3.80
2023-05-19T00:34:34.933Z,4.03
2023-05-19T00:37:11.938Z,3.67
2023-05-19T00:39:41.800Z,3.70
2023-05-19T00:42:13.830Z,4.23
2023-05-19T00:44:51.999Z,4.20
2023-05-19T00:47:24.611Z,4.13
2023-05-19T00:49:57.273Z,4.33
2023-05-19T00:52:36.278Z,3.77
2023-05-19T00:55:11.117Z,3.97
2023-05-19T00:57:54.721Z,3.43
2023-05-19T01:00:28.706Z,3.37
2023-05-19T01:03:03.290Z,3.07
2023-05-19T01:05:38.829Z,3.40
2023-05-19T01:08:16.196Z,3.83
2023-05-19T01:10:49.195Z,3.60
2023-05-19T01:13:20.694Z,3.43
2023-05-19T01:16:07.041Z,4.03
2023-05-19T01:18:49.700Z,3.57
2023-05-19T01:21:38.428Z,3.90
2023-05-19T01:24:31.236Z,4.30
2023-05-19T01:27:28.251Z,3.87
2023-05-19T02:21:02.284Z,4.70
2023-05-19T02:23:32.165Z,4.40
2023-05-19T02:26:02.222Z,4.63
2023-05-19T02:28:32.095Z,4.60
2023-05-19T02:31:01.915Z,6.37
2023-05-19T02:33:35.571Z,4.67
2023-05-19T02:36:09.219Z,4.40
2023-05-19T02:38:39.269Z,5.70
2023-05-19T02:41:09.101Z,4.30
2023-05-19T02:43:39.010Z,4.67
2023-05-19T02:46:08.957Z,5.00
2023-05-19T02:48:38.923Z,4.70
2023-05-19T02:51:11.419Z,4.23
2023-05-19T02:53:41.310Z,4.80
2023-05-19T02:56:11.303Z,4.90
2023-05-19T02:58:43.345Z,5.97
2023-05-19T03:01:13.266Z,4.60
2023-05-19T03:03:43.234Z,4.13
2023-05-19T03:06:18.226Z,4.17
2023-05-19T03:08:48.155Z,4.80
2023-05-19T03:11:18.390Z,4.30
2023-05-19T03:13:48.299Z,5.30
2023-05-19T03:16:18.175Z,3.97
2023-05-19T03:18:51.197Z,5.50
2023-05-19T03:21:23.674Z,4.90
2023-05-19T03:23:53.546Z,5.53
2023-05-19T03:26:23.494Z,5.63
2023-05-19T03:28:54.260Z,5.17
2023-05-19T03:31:24.185Z,4.63
2023-05-19T03:33:54.058Z,5.10
2023-05-19T03:36:32.328Z,4.90
2023-05-19T03:39:02.312Z,4.60
2023-05-19T03:41:34.052Z,5.33
2023-05-19T03:44:12.842Z,5.23
2023-05-19T03:46:46.689Z,5.60
2023-05-19T03:52:49.270Z,5.80
2023-05-19T03:55:25.285Z,5.40
2023-05-19T03:57:56.757Z,5.50
2023-05-19T04:00:29.820Z,5.17
2023-05-19T04:03:05.230Z,5.50
2023-05-19T04:05:36.742Z,5.53
2023-05-19T04:08:06.718Z,5.73
2023-05-19T04:10:43.119Z,5.87
2023-05-19T04:13:18.361Z,5.73
2023-05-19T04:15:51.307Z,6.43
2023-05-19T04:18:28.785Z,5.17
2023-05-19T04:21:03.350Z,5.40
2023-05-19T04:23:33.375Z,5.60
2023-05-19T04:26:08.181Z,4.60
2023-05-19T04:28:42.633Z,5.20
2023-05-19T04:31:14.965Z,4.53
2023-05-19T04:33:48.267Z,5.60
2023-05-19T04:36:21.620Z,4.90
2023-05-19T04:38:55.027Z,5.20
2023-05-19T04:41:30.109Z,5.30
2023-05-19T04:44:06.427Z,4.73
2023-05-19T04:46:42.924Z,4.27
2023-05-19T04:49:16.823Z,4.47
2023-05-19T04:51:57.679Z,5.97
2023-05-19T04:54:30.666Z,4.80
2023-05-19T04:57:03.253Z,4.60
2023-05-19T04:59:35.308Z,4.30
2023-05-19T05:02:05.226Z,3.90
2023-05-19T05:04:38.316Z,3.87
2023-05-19T05:07:11.330Z,4.13
2023-05-19T05:09:41.588Z,3.97
2023-05-19T05:12:21.640Z,4.20
2023-05-19T05:14:57.258Z,3.97
2023-05-19T05:17:34.577Z,4.40
2023-05-19T05:20:15.567Z,4.07
2023-05-19T05:22:51.221Z,4.40
2023-05-19T05:25:27.509Z,3.72
2023-05-19T05:28:06.796Z,3.75
2023-05-19T05:30:37.364Z,4.47
2023-05-19T05:33:15.425Z,4.72
2023-05-19T05:35:47.412Z,3.75
2023-05-19T05:38:20.376Z,4.45
2023-05-19T05:40:54.558Z,3.88
2023-05-19T05:43:36.489Z,4.00
2023-05-19T05:46:09.868Z,3.90
2023-05-19T05:48:42.228Z,4.45
2023-05-19T05:51:14.696Z,3.83
2023-05-19T05:53:54.459Z,3.95
2023-05-19T05:56:40.200Z,3.97
2023-05-19T05:59:14.613Z,4.55
2023-05-19T06:01:52.100Z,4.25
2023-05-19T06:04:24.142Z,3.80
2023-05-19T06:06:59.738Z,4.10
2023-05-19T06:09:30.487Z,4.30
2023-05-19T06:12:03.192Z,3.55
2023-05-19T06:14:37.821Z,3.72
2023-05-19T06:17:13.370Z,3.90
2023-05-19T06:19:45.052Z,4.00
2023-05-19T06:22:20.353Z,3.95
2023-05-19T06:24:50.249Z,3.83
2023-05-19T06:27:23.193Z,3.53
2023-05-19T06:29:55.953Z,3.55
2023-05-19T06:32:26.077Z,3.53
2023-05-19T06:34:59.119Z,3.60
2023-05-19T06:37:33.251Z,3.90
2023-05-19T06:40:04.726Z,3.85
2023-05-19T06:42:34.578Z,3.40
2023-05-19T06:45:09.700Z,3.63
2023-05-19T06:47:45.379Z,3.67
2023-05-19T06:50:15.338Z,3.05
2023-05-19T06:52:47.276Z,4.18
2023-05-19T06:55:17.192Z,3.60
2023-05-19T06:57:47.052Z,3.95
2023-05-19T07:00:30.838Z,4.25
2023-05-19T07:03:01.026Z,3.55
2023-05-19T07:05:31.087Z,3.30
2023-05-19T07:08:02.009Z,3.40
2023-05-19T07:10:43.333Z,3.33
2023-05-19T07:13:13.159Z,3.83
2023-05-19T07:15:45.828Z,3.63
2023-05-19T07:18:15.731Z,3.40
2023-05-19T07:20:45.604Z,3.38
2023-05-19T07:23:17.224Z,3.45
2023-05-19T07:25:47.378Z,4.15
2023-05-19T07:28:17.328Z,3.42
2023-05-19T07:30:50.141Z,3.10
2023-05-19T07:33:20.018Z,3.25
2023-05-19T07:35:50.278Z,3.00
2023-05-19T07:38:20.124Z,2.50
2023-05-19T07:40:50.030Z,2.60
2023-05-19T07:43:19.906Z,3.50
2023-05-19T07:45:53.794Z,3.03
2023-05-19T07:48:25.931Z,3.47
2023-05-19T07:51:03.509Z,2.72
2023-05-19T07:53:33.358Z,3.42
2023-05-19T07:56:03.378Z,3.00
2023-05-19T07:58:33.494Z,3.05
2023-05-19T08:01:06.149Z,3.25
2023-05-19T08:03:36.429Z,3.10
2023-05-19T08:06:06.700Z,3.20
2023-05-19T08:08:37.081Z,2.75
2023-05-19T08:11:07.889Z,3.10
2023-05-19T08:13:39.294Z,2.92
2023-05-19T08:16:11.851Z,2.67
2023-05-19T08:18:41.773Z,2.65
2023-05-19T08:21:12.032Z,3.17
2023-05-19T08:23:41.973Z,2.75
2023-05-19T08:26:11.884Z,3.05
2023-05-19T08:28:41.813Z,3.33
2023-05-19T08:31:14.269Z,2.95
2023-05-19T08:33:44.169Z,3.72
2023-05-19T08:36:15.000Z,3.53
2023-05-19T08:38:44.864Z,3.22
2023-05-19T08:41:14.712Z,3.17
2023-05-19T08:43:46.333Z,3.15
2023-05-19T08:46:19.827Z,3.40
2023-05-19T08:48:53.083Z,2.92
2023-05-19T08:51:36.274Z,2.78
2023-05-19T08:54:15.998Z,3.15
2023-05-19T08:56:47.504Z,3.53
2023-05-19T08:59:18.921Z,3.40
2023-05-19T09:01:54.518Z,3.80
2023-05-19T09:04:24.536Z,3.15
2023-05-19T09:06:54.426Z,3.65
2023-05-19T09:09:24.343Z,2.80
2023-05-19T09:11:54.264Z,3.30
2023-05-19T09:14:24.394Z,3.17
2023-05-19T09:16:57.420Z,3.58
2023-05-19T09:19:32.057Z,2.80
2023-05-19T09:22:03.593Z,2.20
2023-05-19T09:24:35.460Z,2.67
2023-05-19T09:27:05.303Z,2.78
2023-05-19T09:29:35.256Z,2.95
2023-05-19T09:32:08.557Z,3.05
2023-05-19T09:34:44.906Z,3.35
2023-05-19T09:37:16.410Z,2.88
2023-05-19T09:39:52.287Z,3.00
2023-05-19T09:42:28.584Z,3.53
2023-05-19T09:45:06.390Z,3.22
2023-05-19T09:47:43.070Z,3.03
2023-05-19T09:50:14.673Z,2.97
2023-05-19T09:52:55.661Z,2.72
2023-05-19T09:55:29.264Z,2.70
2023-05-19T09:58:00.203Z,3.20
2023-05-19T10:00:31.641Z,2.88
2023-05-19T10:03:07.019Z,2.83
2023-05-19T10:05:37.034Z,2.38
2023-05-19T10:08:10.554Z,2.75
2023-05-19T10:10:41.472Z,2.60
2023-05-19T10:13:11.744Z,2.28
2023-05-19T10:15:57.137Z,1.88
2023-05-19T10:18:30.943Z,2.55
2023-05-19T10:21:01.957Z,2.00
2023-05-19T10:23:31.871Z,2.38
2023-05-19T10:26:06.875Z,2.28
2023-05-19T10:28:40.083Z,2.13
2023-05-19T10:31:12.849Z,2.28
2023-05-19T10:34:06.979Z,2.05
2023-05-19T10:36:47.486Z,2.33
2023-05-19T10:39:21.916Z,2.35
2023-05-19T10:42:01.577Z,2.47
2023-05-19T10:44:52.579Z,2.42
2023-05-19T10:47:26.765Z,2.47
2023-05-19T10:49:59.595Z,2.70
2023-05-19T10:52:31.061Z,3.05
2023-05-19T10:55:00.961Z,3.35
2023-05-19T10:57:33.255Z,3.20
2023-05-19T11:00:11.895Z,3.30
2023-05-19T11:02:44.411Z,3.13
2023-05-19T11:05:19.444Z,3.58
2023-05-19T11:08:02.545Z,3.10
2023-05-19T11:10:32.639Z,3.47
2023-05-19T11:13:03.071Z,3.58
2023-05-19T11:15:33.267Z,2.90
2023-05-19T11:18:04.911Z,3.40
2023-05-19T11:20:42.290Z,3.35
2023-05-19T11:23:13.547Z,2.97
2023-05-19T11:25:50.646Z,2.35
2023-05-19T11:28:26.014Z,2.90
2023-05-19T11:30:59.315Z,2.20
2023-05-19T11:33:30.274Z,2.70
2023-05-19T11:36:02.986Z,2.65
2023-05-19T11:38:32.986Z,2.70
2023-05-19T11:41:03.700Z,2.63
2023-05-19T11:43:33.617Z,2.90
2023-05-19T11:46:04.328Z,2.75
2023-05-19T11:48:34.301Z,2.88
2023-05-19T11:51:09.825Z,2.78
2023-05-19T11:53:40.464Z,2.67
2023-05-19T11:56:11.263Z,3.00
2023-05-19T11:58:41.185Z,3.30
2023-05-19T12:01:11.416Z,3.17
2023-05-19T12:03:41.528Z,3.08
2023-05-19T12:06:20.606Z,3.83
2023-05-19T12:08:50.465Z,4.03
2023-05-19T12:11:21.296Z,3.20
2023-05-19T12:13:54.784Z,3.13
2023-05-19T12:16:26.174Z,3.28
2023-05-19T12:18:58.285Z,3.15
2023-05-19T12:21:34.436Z,3.22
2023-05-19T12:24:05.104Z,3.20
2023-05-19T12:26:35.051Z,3.53
2023-05-19T12:29:05.526Z,3.15
2023-05-19T12:31:38.325Z,3.10
2023-05-19T12:34:08.543Z,3.90
2023-05-19T12:36:42.311Z,3.30
2023-05-19T12:39:12.524Z,3.38
2023-05-19T12:41:42.375Z,3.70
2023-05-19T12:44:18.538Z,4.00
2023-05-19T12:46:48.456Z,3.60
2023-05-19T12:49:18.503Z,3.20
2023-05-19T12:52:02.393Z,3.72
2023-05-19T12:54:36.646Z,4.18
2023-05-19T12:57:08.985Z,3.78
2023-05-19T12:59:39.732Z,3.78
2023-05-19T13:02:09.709Z,3.60
2023-05-19T13:04:39.602Z,3.50
2023-05-19T13:07:12.199Z,3.85
2023-05-19T13:09:42.482Z,5.13
2023-05-19T13:12:12.472Z,4.18
2023-05-19T13:14:42.744Z,4.53
2023-05-19T13:17:12.651Z,4.47
2023-05-19T13:19:42.671Z,3.80
2023-05-19T13:22:15.133Z,4.03
2023-05-19T13:24:50.587Z,3.70
2023-05-19T13:27:20.422Z,4.30
2023-05-19T13:29:50.284Z,4.63
2023-05-19T13:32:27.330Z,4.30
2023-05-19T13:35:03.406Z,4.20
2023-05-19T13:37:39.660Z,3.75
2023-05-19T13:40:18.387Z,4.40
2023-05-19T13:42:51.994Z,4.13
2023-05-19T13:45:26.236Z,4.80
2023-05-19T13:47:57.406Z,4.10
2023-05-19T13:50:27.468Z,4.80
2023-05-19T13:53:01.732Z,5.05
2023-05-19T13:55:34.345Z,5.20
2023-05-19T13:58:06.887Z,4.88
2023-05-19T14:00:39.424Z,4.65
2023-05-19T14:03:09.441Z,5.00
2023-05-19T14:05:47.677Z,5.10
2023-05-19T14:08:20.274Z,5.25
2023-05-19T14:10:50.246Z,4.65
2023-05-19T14:13:32.522Z,4.50
2023-05-19T14:16:10.451Z,4.20
2023-05-19T14:18:50.506Z,4.97
2023-05-19T14:21:22.479Z,5.88
2023-05-19T14:23:57.181Z,4.80
2023-05-19T14:26:29.371Z,5.50
2023-05-19T14:29:03.131Z,4.40
2023-05-19T14:31:37.932Z,4.45
2023-05-19T14:34:12.316Z,4.25
2023-05-19T14:36:45.002Z,4.03
2023-05-19T14:39:37.797Z,3.60
2023-05-19T14:42:09.703Z,3.70
2023-05-19T14:44:40.180Z,3.42
2023-05-19T14:47:11.504Z,3.50
2023-05-19T14:49:41.486Z,3.20
2023-05-19T14:52:14.463Z,3.53
2023-05-19T14:54:49.673Z,3.80
2023-05-19T14:57:21.422Z,3.40
2023-05-19T14:59:59.646Z,3.33
2023-05-19T15:02:30.189Z,3.58
2023-05-19T15:05:03.063Z,3.25
2023-05-19T15:07:35.856Z,3.05
2023-05-19T15:10:16.643Z,2.78
2023-05-19T15:12:52.108Z,2.70
2023-05-19T15:15:28.335Z,2.45
2023-05-19T15:18:08.815Z,3.17
2023-05-19T15:20:40.896Z,2.53
2023-05-19T15:23:10.777Z,2.15
2023-05-19T15:25:44.525Z,2.38
2023-05-19T15:28:18.004Z,3.08
2023-05-19T15:30:50.479Z,2.65
2023-05-19T15:33:31.751Z,2.72
2023-05-19T15:36:01.630Z,2.30
2023-05-19T15:38:31.522Z,2.50
2023-05-19T15:41:08.701Z,2.35
2023-05-19T15:43:38.981Z,2.42
2023-05-19T15:46:08.923Z,2.20
2023-05-19T15:48:38.789Z,2.67
2023-05-19T15:51:14.893Z,2.22
2023-05-19T15:53:44.724Z,2.17
2023-05-19T15:56:17.232Z,2.03
2023-05-19T15:58:47.074Z,2.03
2023-05-19T16:01:17.204Z,2.45
2023-05-19T16:03:47.914Z,2.13
2023-05-19T16:06:17.979Z,2.25
2023-05-19T16:08:47.870Z,2.40
2023-05-19T16:11:22.895Z,2.40
2023-05-19T16:13:52.754Z,2.70
2023-05-19T16:16:22.690Z,2.10
2023-05-19T16:18:52.562Z,2.17
2023-05-19T16:21:22.583Z,2.30
2023-05-19T16:23:52.463Z,1.98
2023-05-19T16:26:24.912Z,2.55
2023-05-19T16:28:56.497Z,3.10
2023-05-19T16:31:26.390Z,3.40
2023-05-19T16:33:57.027Z,2.72
2023-05-19T16:36:27.169Z,2.25
2023-05-19T16:38:57.068Z,2.28
2023-05-19T16:41:29.577Z,2.58
2023-05-19T16:44:00.972Z,2.20
2023-05-19T16:46:31.619Z,2.20
2023-05-19T16:49:01.679Z,2.10
2023-05-19T16:51:33.906Z,2.60
2023-05-19T16:54:05.282Z,2.42
2023-05-19T16:56:37.723Z,2.05
2023-05-19T16:59:07.574Z,2.00
2023-05-19T17:01:37.463Z,1.90
2023-05-19T17:04:07.523Z,2.40
2023-05-19T17:06:37.374Z,1.80
2023-05-19T17:09:07.409Z,1.98
2023-05-19T17:11:43.233Z,2.83
2023-05-19T17:14:13.121Z,1.98
2023-05-19T17:16:49.514Z,2.03
2023-05-19T17:19:22.644Z,1.90
2023-05-19T17:21:52.638Z,2.45
2023-05-19T17:24:22.485Z,2.22
2023-05-19T17:26:55.012Z,2.55
2023-05-19T17:29:24.986Z,2.25
2023-05-19T17:32:05.755Z,2.20
2023-05-19T17:34:36.885Z,2.53
2023-05-19T17:37:12.200Z,2.58
2023-05-19T17:39:43.411Z,2.23
2023-05-19T17:42:18.572Z,2.33
2023-05-19T17:44:49.755Z,2.67
2023-05-19T17:47:19.554Z,2.80
2023-05-19T17:49:51.701Z,3.20
2023-05-19T17:52:30.388Z,3.00
2023-05-19T17:55:04.478Z,2.75
2023-05-19T17:57:40.155Z,3.20
2023-05-19T18:00:11.618Z,2.90
2023-05-19T18:02:45.323Z,2.97
2023-05-19T18:05:16.830Z,2.75
2023-05-19T18:07:47.717Z,2.80
2023-05-19T18:10:19.190Z,3.22
2023-05-19T18:12:56.264Z,2.80
2023-05-19T18:15:27.334Z,3.45
2023-05-19T18:17:57.229Z,2.80
2023-05-19T18:20:27.293Z,2.67
2023-05-19T18:23:04.469Z,2.55
2023-05-19T18:25:49.858Z,2.70
2023-05-19T18:28:22.368Z,2.70
2023-05-19T18:31:04.453Z,2.90
2023-05-19T18:33:40.561Z,2.83
2023-05-19T18:36:17.937Z,3.97
2023-05-19T18:38:48.212Z,3.03
2023-05-19T18:41:20.478Z,3.30
2023-05-19T18:43:54.367Z,3.40
2023-05-19T18:46:24.295Z,2.90
2023-05-19T18:48:56.435Z,3.38
2023-05-19T18:51:28.937Z,3.10
2023-05-19T18:54:05.512Z,3.25
2023-05-19T18:56:39.257Z,3.10
2023-05-19T18:59:17.216Z,3.37
2023-05-19T19:01:48.392Z,3.30
2023-05-19T19:04:24.149Z,3.08
2023-05-19T19:06:55.652Z,3.10
2023-05-19T19:09:25.629Z,3.30
2023-05-19T19:11:57.504Z,3.33
2023-05-19T19:14:29.981Z,3.20
2023-05-19T19:17:03.869Z,3.23
2023-05-19T19:19:36.245Z,3.65
2023-05-19T19:22:08.562Z,3.60
2023-05-19T19:24:46.313Z,3.67
2023-05-19T19:27:17.775Z,3.70
2023-05-19T19:29:52.734Z,4.13
2023-05-19T19:32:26.719Z,4.13
2023-05-19T19:35:02.188Z,3.90
2023-05-19T19:37:47.769Z,4.60
2023-05-19T19:40:23.143Z,4.67
2023-05-19T19:42:53.031Z,4.87
2023-05-19T19:45:26.801Z,5.03
2023-05-19T19:47:57.811Z,5.23
2023-05-19T19:50:27.673Z,4.97
2023-05-19T19:53:00.649Z,4.97
2023-05-19T19:55:30.966Z,4.73
2023-05-19T19:58:00.858Z,5.30
2023-05-19T20:00:33.468Z,4.77
2023-05-19T20:03:05.638Z,4.63
2023-05-19T20:05:38.492Z,4.93
2023-05-19T20:08:08.821Z,4.90
2023-05-19T20:10:38.720Z,5.00
2023-05-19T20:13:08.825Z,4.53
2023-05-19T20:15:45.138Z,4.47
2023-05-19T20:18:15.825Z,4.90
2023-05-19T20:20:45.769Z,4.47
2023-05-19T20:23:16.453Z,5.00
2023-05-19T20:26:09.378Z,4.87
2023-05-19T20:28:38.104Z,5.23
2023-05-19T20:31:10.958Z,5.00
2023-05-19T20:33:40.893Z,5.40
2023-05-19T20:36:11.183Z,5.10
2023-05-19T20:38:43.304Z,6.30
2023-05-19T20:41:13.162Z,6.07
2023-05-19T20:43:43.167Z,6.90
2023-05-19T20:46:15.860Z,6.20
2023-05-19T20:48:46.484Z,5.90
2023-05-19T20:51:16.420Z,6.17
2023-05-19T20:53:46.294Z,6.37
2023-05-19T20:56:16.308Z,6.90
2023-05-19T20:58:46.272Z,6.23
2023-05-19T21:01:18.778Z,6.43
2023-05-19T21:03:48.664Z,6.10
2023-05-19T21:06:18.530Z,6.10
2023-05-19T21:08:48.395Z,6.90
2023-05-19T21:11:19.053Z,5.90
2023-05-19T21:13:48.860Z,5.53
2023-05-19T21:16:21.388Z,5.63
2023-05-19T21:18:51.390Z,6.10
2023-05-19T21:21:22.199Z,6.13
2023-05-19T21:23:52.121Z,5.93
2023-05-19T21:26:21.977Z,5.80
2023-05-19T21:28:52.048Z,6.13
2023-05-19T21:31:24.671Z,5.90
2023-05-19T21:33:54.620Z,5.37
2023-05-19T21:36:24.566Z,5.67
2023-05-19T21:38:54.409Z,6.17
2023-05-19T21:41:24.395Z,6.13
2023-05-19T21:43:54.293Z,6.33
2023-05-19T21:46:28.152Z,6.50
2023-05-19T21:48:58.091Z,6.33
2023-05-19T21:51:29.381Z,6.80
2023-05-19T21:53:59.735Z,6.00
2023-05-19T21:56:29.623Z,6.30
2023-05-19T21:58:59.493Z,5.83
2023-05-19T22:01:32.453Z,5.73
2023-05-19T22:04:02.586Z,6.20
2023-05-19T22:06:33.376Z,5.47
2023-05-19T22:09:04.583Z,6.10
2023-05-19T22:11:34.479Z,4.93
2023-05-19T22:14:04.319Z,5.00
2023-05-19T22:16:36.996Z,5.53
2023-05-19T22:19:07.270Z,5.57
2023-05-19T22:21:37.350Z,5.87
2023-05-19T22:24:07.555Z,5.90
2023-05-19T22:26:37.737Z,5.80
2023-05-19T22:29:07.617Z,5.57
2023-05-19T22:31:40.094Z,6.00
2023-05-19T22:34:10.030Z,5.93
2023-05-19T22:36:41.517Z,5.00
2023-05-19T22:39:12.668Z,5.67
2023-05-19T22:41:42.934Z,5.40
2023-05-19T22:44:16.292Z,5.60
2023-05-19T22:46:48.855Z,5.43
2023-05-19T22:49:20.222Z,5.37
2023-05-19T22:51:51.103Z,5.80
2023-05-19T22:54:21.052Z,5.00
2023-05-19T22:56:50.969Z,5.37
2023-05-19T22:59:21.798Z,5.33
2023-05-19T23:01:54.260Z,4.93
2023-05-19T23:04:24.269Z,5.47
2023-05-19T23:06:54.127Z,5.03
2023-05-19T23:09:23.980Z,4.97
2023-05-19T23:11:53.798Z,5.73
2023-05-19T23:14:27.570Z,5.47
2023-05-19T23:17:00.240Z,5.30
2023-05-19T23:19:32.100Z,5.23
2023-05-19T23:22:04.585Z,4.87
2023-05-19T23:24:35.987Z,4.80
2023-05-19T23:27:10.486Z,4.70
2023-05-19T23:29:44.580Z,5.00
2023-05-19T23:32:21.158Z,5.63
2023-05-19T23:34:52.813Z,6.03
2023-05-19T23:37:23.085Z,5.33
2023-05-19T23:39:53.004Z,5.37
2023-05-19T23:42:23.893Z,5.50
2023-05-19T23:44:57.209Z,5.23
2023-05-19T23:47:29.721Z,5.20
2023-05-19T23:49:59.555Z,5.27
2023-05-19T23:52:36.046Z,5.40
2023-05-19T23:55:08.635Z,6.10
2023-05-19T23:57:38.523Z,5.77
